createdAt,value
2022-07-30T00:00:54.224Z,22.60
2022-07-30T00:03:22.188Z,22.60
2022-07-30T00:05:50.074Z,22.57
2022-07-30T00:08:17.575Z,22.20
2022-07-30T00:10:45.121Z,22.00
2022-07-30T00:13:14.265Z,21.73
2022-07-30T00:15:43.329Z,21.50
2022-07-30T00:18:11.945Z,21.90
2022-07-30T00:20:42.779Z,21.63
2022-07-30T00:23:12.045Z,20.60
2022-07-30T00:25:39.589Z,21.17
2022-07-30T00:28:07.857Z,21.37
2022-07-30T00:30:35.429Z,21.00
2022-07-30T00:33:04.805Z,20.27
2022-07-30T00:35:35.879Z,21.47
2022-07-30T00:38:05.518Z,21.00
2022-07-30T00:40:33.100Z,21.10
2022-07-30T00:43:00.709Z,21.13
2022-07-30T00:45:28.623Z,20.87
2022-07-30T00:47:56.174Z,21.47
2022-07-30T00:50:25.060Z,20.87
2022-07-30T00:52:52.634Z,21.83
2022-07-30T00:55:20.374Z,22.37
2022-07-30T00:57:47.934Z,22.00
2022-07-30T01:00:17.257Z,21.90
2022-07-30T01:02:44.861Z,22.07
2022-07-30T01:05:13.145Z,21.27
2022-07-30T01:07:45.042Z,21.63
2022-07-30T01:10:14.210Z,22.53
2022-07-30T01:12:42.503Z,22.27
2022-07-30T01:15:11.223Z,22.70
2022-07-30T01:17:39.026Z,22.10
2022-07-30T01:20:10.968Z,22.70
2022-07-30T01:22:48.973Z,22.13
2022-07-30T01:25:20.213Z,22.27
2022-07-30T01:27:51.871Z,21.13
2022-07-30T01:30:22.144Z,21.83
2022-07-30T01:32:50.569Z,21.80
2022-07-30T01:35:19.858Z,23.53
2022-07-30T01:37:48.054Z,21.13
2022-07-30T01:40:16.091Z,20.73
2022-07-30T01:42:47.306Z,21.37
2022-07-30T01:45:16.957Z,21.73
2022-07-30T01:47:44.775Z,21.67
2022-07-30T01:50:14.304Z,20.50
2022-07-30T01:52:44.644Z,20.43
2022-07-30T01:55:18.179Z,20.50
2022-07-30T01:57:46.745Z,20.80
2022-07-30T02:00:16.141Z,20.43
2022-07-30T02:02:49.414Z,21.97
2022-07-30T02:05:19.806Z,20.93
2022-07-30T02:07:53.808Z,22.00
2022-07-30T02:10:29.443Z,21.20
2022-07-30T02:13:02.281Z,22.27
2022-07-30T02:15:35.502Z,21.97
2022-07-30T02:18:05.513Z,21.43
2022-07-30T02:20:35.848Z,21.57
2022-07-30T02:23:08.040Z,21.50
2022-07-30T02:25:37.037Z,20.80
2022-07-30T02:28:17.808Z,21.77
2022-07-30T02:30:49.615Z,21.53
2022-07-30T02:33:18.471Z,20.87
2022-07-30T02:35:46.395Z,22.03
2022-07-30T02:38:16.930Z,21.77
2022-07-30T02:40:45.265Z,21.80
2022-07-30T02:43:13.022Z,22.17
2022-07-30T02:45:41.528Z,22.10
2022-07-30T02:48:11.449Z,22.53
2022-07-30T02:50:59.436Z,21.83
2022-07-30T02:53:28.211Z,22.03
2022-07-30T02:55:57.191Z,21.77
2022-07-30T02:58:26.266Z,22.33
2022-07-30T03:00:55.996Z,21.63
2022-07-30T03:03:28.919Z,21.97
2022-07-30T03:05:57.620Z,22.53
2022-07-30T03:08:27.762Z,22.53
2022-07-30T03:10:56.257Z,22.97
2022-07-30T03:13:25.805Z,22.87
2022-07-30T03:15:55.888Z,22.53
2022-07-30T03:18:25.778Z,22.77
2022-07-30T03:20:56.341Z,23.27
2022-07-30T03:23:24.589Z,23.23
2022-07-30T03:25:56.102Z,23.27
2022-07-30T03:28:24.634Z,23.27
2022-07-30T03:30:52.548Z,23.47
2022-07-30T03:33:20.418Z,23.07
2022-07-30T03:35:51.222Z,22.30
2022-07-30T03:38:19.347Z,21.90
2022-07-30T03:40:47.285Z,22.80
2022-07-30T03:43:32.785Z,21.63
2022-07-30T03:46:04.118Z,21.37
2022-07-30T03:48:35.511Z,22.20
2022-07-30T03:51:07.533Z,20.93
2022-07-30T03:53:35.230Z,21.80
2022-07-30T03:56:25.626Z,21.60
2022-07-30T03:59:02.939Z,23.27
2022-07-30T04:01:30.662Z,24.13
2022-07-30T04:04:07.378Z,24.40
2022-07-30T04:06:39.656Z,24.93
2022-07-30T04:09:08.339Z,24.07
2022-07-30T04:11:40.759Z,24.57
2022-07-30T04:14:12.109Z,24.03
2022-07-30T04:16:47.013Z,23.00
2022-07-30T04:19:21.309Z,22.53
2022-07-30T04:21:52.034Z,21.57
2022-07-30T04:24:20.048Z,21.33
2022-07-30T04:26:48.861Z,22.83
2022-07-30T04:29:21.368Z,22.37
2022-07-30T04:31:52.740Z,22.40
2022-07-30T04:34:29.405Z,21.60
2022-07-30T04:36:59.252Z,21.20
2022-07-30T04:39:29.414Z,20.83
2022-07-30T04:41:56.938Z,21.47
2022-07-30T04:44:35.618Z,21.70
2022-07-30T04:47:22.871Z,21.10
2022-07-30T04:50:07.259Z,21.90
2022-07-30T04:52:36.964Z,21.53
2022-07-30T04:55:08.285Z,21.73
2022-07-30T04:57:38.937Z,21.30
2022-07-30T05:00:07.631Z,23.00
2022-07-30T05:02:39.197Z,21.87
2022-07-30T05:05:08.513Z,22.80
2022-07-30T05:07:38.116Z,22.00
2022-07-30T05:10:07.293Z,22.33
2022-07-30T05:12:37.450Z,21.87
2022-07-30T05:15:06.136Z,22.43
2022-07-30T05:17:33.903Z,21.37
2022-07-30T05:20:04.476Z,20.90
2022-07-30T05:22:50.817Z,20.80
2022-07-30T05:25:19.907Z,21.57
2022-07-30T05:27:48.241Z,20.97
2022-07-30T05:30:16.494Z,21.27
2022-07-30T05:32:48.250Z,20.90
2022-07-30T05:35:16.097Z,20.83
2022-07-30T05:37:45.142Z,21.13
2022-07-30T05:40:13.556Z,20.23
2022-07-30T05:43:07.856Z,20.87
2022-07-30T05:45:35.431Z,20.07
2022-07-30T05:48:03.140Z,20.87
2022-07-30T05:50:30.891Z,19.67
2022-07-30T05:52:59.915Z,20.63
2022-07-30T05:55:47.415Z,20.70
2022-07-30T05:58:36.675Z,20.70
2022-07-30T06:01:04.318Z,20.43
2022-07-30T06:03:33.850Z,21.37
2022-07-30T06:06:23.335Z,21.37
2022-07-30T06:08:52.755Z,21.17
2022-07-30T06:11:20.519Z,21.57
2022-07-30T06:13:52.024Z,22.67
2022-07-30T06:16:19.964Z,23.47
2022-07-30T06:18:47.546Z,23.57
2022-07-30T06:21:25.781Z,22.90
2022-07-30T06:24:09.800Z,22.40
2022-07-30T06:26:41.322Z,23.33
2022-07-30T06:29:09.619Z,22.40
2022-07-30T06:31:41.481Z,21.20
2022-07-30T06:34:10.953Z,21.53
2022-07-30T06:36:41.956Z,21.13
2022-07-30T06:39:53.849Z,22.70
2022-07-30T06:42:24.454Z,23.73
2022-07-30T06:45:27.182Z,25.27
2022-07-30T06:48:14.455Z,24.23
2022-07-30T06:50:42.726Z,25.37
2022-07-30T06:53:11.087Z,26.00
2022-07-30T06:56:08.982Z,25.13
2022-07-30T06:58:47.095Z,24.23
2022-07-30T07:01:33.650Z,23.87
2022-07-30T07:04:01.765Z,24.47
2022-07-30T07:06:29.351Z,25.27
2022-07-30T07:08:57.163Z,23.63
2022-07-30T07:11:34.246Z,24.83
2022-07-30T07:14:06.858Z,23.80
2022-07-30T07:16:36.167Z,24.20
2022-07-30T07:20:00.336Z,23.03
2022-07-30T07:22:11.893Z,22.27
2022-07-30T07:24:39.634Z,23.30
2022-07-30T07:27:15.358Z,21.97
2022-07-30T07:30:05.673Z,22.27
2022-07-30T07:32:32.549Z,23.83
2022-07-30T07:35:00.105Z,23.20
2022-07-30T07:37:27.814Z,23.50
2022-07-30T07:39:56.110Z,23.23
2022-07-30T07:42:25.157Z,23.17
2022-07-30T07:44:53.967Z,24.30
2022-07-30T07:47:21.573Z,27.77
2022-07-30T07:50:04.302Z,28.03
2022-07-30T07:52:31.967Z,24.98
2022-07-30T07:54:59.470Z,24.08
2022-07-30T07:57:31.350Z,25.27
2022-07-30T07:59:59.443Z,25.95
2022-07-30T08:02:28.227Z,26.15
2022-07-30T08:05:00.860Z,25.52
2022-07-30T08:07:57.622Z,26.58
2022-07-30T08:10:57.145Z,25.88
2022-07-30T08:13:48.865Z,26.15
2022-07-30T08:16:38.627Z,26.15
2022-07-30T08:19:27.153Z,24.33
2022-07-30T08:22:23.910Z,25.08
2022-07-30T08:24:51.475Z,24.48
2022-07-30T08:27:19.125Z,25.33
2022-07-30T08:29:48.129Z,25.40
2022-07-30T08:32:18.517Z,24.67
2022-07-30T08:34:47.079Z,24.88
2022-07-30T08:37:15.729Z,25.33
2022-07-30T08:39:43.462Z,25.27
2022-07-30T08:42:11.221Z,26.27
2022-07-30T08:44:39.154Z,26.15
2022-07-30T08:47:09.044Z,25.65
2022-07-30T08:49:55.745Z,26.30
2022-07-30T08:52:27.702Z,25.83
2022-07-30T08:55:01.835Z,26.23
2022-07-30T08:57:30.878Z,26.35
2022-07-30T09:00:01.590Z,25.02
2022-07-30T09:02:32.563Z,25.58
2022-07-30T09:05:03.754Z,25.00
2022-07-30T09:07:33.483Z,26.17
2022-07-30T09:10:02.056Z,25.27
2022-07-30T09:12:35.672Z,26.48
2022-07-30T09:15:10.116Z,25.83
2022-07-30T09:17:51.097Z,25.27
2022-07-30T09:20:20.109Z,24.60
2022-07-30T09:22:50.107Z,24.98
2022-07-30T09:25:45.842Z,24.30
2022-07-30T09:28:34.194Z,23.23
2022-07-30T09:31:24.905Z,24.50
2022-07-30T09:34:27.081Z,25.52
2022-07-30T09:37:01.501Z,25.20
2022-07-30T09:39:59.493Z,24.35
2022-07-30T09:43:07.136Z,24.52
2022-07-30T09:45:35.558Z,24.13
2022-07-30T09:48:04.098Z,23.73
2022-07-30T09:50:33.314Z,24.38
2022-07-30T09:53:08.054Z,24.63
2022-07-30T09:55:41.885Z,24.10
2022-07-30T09:58:13.047Z,24.05
2022-07-30T10:00:48.431Z,24.27
2022-07-30T10:03:46.607Z,24.95
2022-07-30T10:06:38.077Z,23.73
2022-07-30T10:09:27.320Z,23.02
2022-07-30T10:11:55.696Z,21.55
2022-07-30T10:14:31.346Z,20.13
2022-07-30T10:17:00.370Z,20.75
2022-07-30T10:19:40.106Z,19.00
2022-07-30T10:22:29.689Z,18.83
2022-07-30T10:25:19.406Z,18.27
2022-07-30T10:28:07.019Z,17.63
2022-07-30T10:30:34.873Z,16.75
2022-07-30T10:33:06.316Z,16.17
2022-07-30T10:35:38.333Z,16.33
2022-07-30T10:38:13.974Z,16.88
2022-07-30T10:40:49.749Z,16.55
2022-07-30T10:43:36.184Z,16.38
2022-07-30T10:46:09.202Z,16.25
2022-07-30T10:48:48.180Z,15.70
2022-07-30T10:51:25.344Z,15.68
2022-07-30T10:54:03.494Z,15.82
2022-07-30T10:56:31.086Z,15.90
2022-07-30T10:59:03.340Z,16.45
2022-07-30T11:02:07.651Z,16.67
2022-07-30T11:04:35.512Z,17.58
2022-07-30T11:07:29.464Z,16.60
2022-07-30T11:10:08.759Z,17.20
2022-07-30T11:12:54.373Z,18.10
2022-07-30T11:15:22.645Z,17.77
2022-07-30T11:18:11.400Z,17.75
2022-07-30T11:20:40.598Z,19.15
2022-07-30T11:23:14.265Z,18.17
2022-07-30T11:25:51.185Z,18.42
2022-07-30T11:28:37.453Z,17.05
2022-07-30T11:31:10.086Z,18.00
2022-07-30T11:33:39.147Z,17.65
2022-07-30T11:36:10.634Z,18.05
2022-07-30T11:38:59.934Z,16.77
2022-07-30T11:41:36.094Z,16.38
2022-07-30T11:44:29.277Z,17.00
2022-07-30T11:46:57.029Z,16.00
2022-07-30T11:49:24.597Z,16.58
2022-07-30T11:51:52.219Z,16.92
2022-07-30T11:54:19.803Z,16.88
2022-07-30T11:56:53.187Z,17.13
2022-07-30T11:59:20.806Z,16.52
2022-07-30T12:01:52.801Z,16.67
2022-07-30T12:04:20.588Z,16.55
2022-07-30T12:06:49.182Z,16.30
2022-07-30T12:09:23.598Z,17.15
2022-07-30T12:11:57.048Z,16.05
2022-07-30T12:14:24.690Z,16.10
2022-07-30T12:16:54.047Z,16.27
2022-07-30T12:19:21.826Z,16.17
2022-07-30T12:21:53.315Z,15.90
2022-07-30T12:24:26.434Z,16.38
2022-07-30T12:26:54.211Z,16.52
2022-07-30T12:29:23.005Z,15.85
2022-07-30T12:31:53.445Z,15.52
2022-07-30T12:34:21.841Z,16.00
2022-07-30T12:36:49.485Z,16.00
2022-07-30T12:39:21.129Z,16.10
2022-07-30T12:41:50.391Z,16.38
2022-07-30T12:44:38.625Z,15.77
2022-07-30T12:47:07.718Z,16.02
2022-07-30T12:49:36.583Z,15.95
2022-07-30T12:52:13.268Z,16.25
2022-07-30T12:54:46.146Z,15.70
2022-07-30T12:57:13.633Z,15.80
2022-07-30T12:59:42.478Z,15.88
2022-07-30T13:02:10.017Z,15.75
2022-07-30T13:04:59.160Z,16.50
2022-07-30T13:07:53.936Z,15.80
2022-07-30T13:10:21.669Z,15.77
2022-07-30T13:12:49.167Z,15.93
2022-07-30T13:15:22.003Z,15.48
2022-07-30T13:17:50.296Z,15.27
2022-07-30T13:20:18.435Z,15.68
2022-07-30T13:22:46.306Z,15.82
2022-07-30T13:25:14.091Z,15.57
2022-07-30T13:27:41.561Z,15.80
2022-07-30T13:30:10.560Z,14.95
2022-07-30T13:32:39.447Z,15.02
2022-07-30T13:35:07.688Z,15.45
2022-07-30T13:37:37.616Z,14.80
2022-07-30T13:40:06.893Z,16.08
2022-07-30T13:42:34.847Z,15.50
2022-07-30T13:45:02.457Z,15.57
2022-07-30T13:47:29.955Z,15.77
2022-07-30T13:49:58.779Z,15.73
2022-07-30T13:52:26.580Z,15.57
2022-07-30T13:54:54.464Z,15.63
2022-07-30T13:57:22.020Z,15.63
2022-07-30T13:59:49.625Z,15.70
2022-07-30T14:02:17.501Z,15.63
2022-07-30T14:04:45.077Z,16.27
2022-07-30T14:07:13.965Z,15.60
2022-07-30T14:09:47.056Z,15.65
2022-07-30T14:12:16.049Z,15.98
2022-07-30T14:14:43.582Z,15.52
2022-07-30T14:17:11.155Z,15.35
2022-07-30T14:19:41.196Z,16.10
2022-07-30T14:22:08.931Z,16.17
2022-07-30T14:24:37.725Z,16.20
2022-07-30T14:27:05.969Z,16.00
2022-07-30T14:29:33.842Z,15.50
2022-07-30T14:32:01.406Z,15.60
2022-07-30T14:34:29.105Z,15.40
2022-07-30T14:36:56.631Z,15.27
2022-07-30T14:39:24.893Z,16.00
2022-07-30T14:41:55.781Z,15.77
2022-07-30T14:44:23.896Z,15.20
2022-07-30T14:46:52.663Z,13.50
2022-07-30T14:49:20.780Z,15.90
2022-07-30T14:51:48.500Z,15.63
2022-07-30T14:54:16.498Z,15.33
2022-07-30T14:56:44.060Z,15.68
2022-07-30T14:59:14.355Z,14.90
2022-07-30T15:01:42.154Z,14.45
2022-07-30T15:04:11.402Z,13.00
2022-07-30T15:06:40.708Z,12.50
2022-07-30T15:09:08.831Z,12.73
2022-07-30T15:12:04.310Z,12.55
2022-07-30T15:14:26.875Z,13.52
2022-07-30T15:16:59.374Z,14.20
2022-07-30T15:19:30.938Z,14.07
2022-07-30T15:21:58.895Z,14.65
2022-07-30T15:24:26.976Z,13.50
2022-07-30T15:26:55.855Z,13.90
2022-07-30T15:29:27.190Z,13.82
2022-07-30T15:31:54.733Z,13.90
2022-07-30T15:34:22.393Z,13.30
2022-07-30T15:36:49.879Z,13.57
2022-07-30T15:39:17.479Z,14.15
2022-07-30T15:41:45.988Z,13.90
2022-07-30T15:44:14.750Z,14.10
2022-07-30T15:46:43.574Z,14.50
2022-07-30T15:49:11.167Z,14.70
2022-07-30T15:51:43.725Z,14.40
2022-07-30T15:54:11.306Z,14.63
2022-07-30T15:56:38.921Z,14.50
2022-07-30T15:59:07.081Z,14.75
2022-07-30T16:01:34.666Z,15.20
2022-07-30T16:04:03.930Z,14.57
2022-07-30T16:06:32.324Z,14.63
2022-07-30T16:09:00.163Z,15.02
2022-07-30T16:11:27.730Z,13.85
2022-07-30T16:14:00.558Z,14.40
2022-07-30T16:16:28.201Z,13.90
2022-07-30T16:18:55.880Z,14.13
2022-07-30T16:21:24.795Z,14.25
2022-07-30T16:23:53.582Z,14.10
2022-07-30T16:26:21.577Z,14.52
2022-07-30T16:28:49.304Z,14.27
2022-07-30T16:31:17.072Z,14.25
2022-07-30T16:33:44.868Z,14.43
2022-07-30T16:36:14.167Z,14.18
2022-07-30T16:38:43.079Z,14.23
2022-07-30T16:41:13.366Z,14.32
2022-07-30T16:43:41.832Z,13.73
2022-07-30T16:46:10.803Z,14.30
2022-07-30T16:48:38.313Z,14.05
2022-07-30T16:51:06.942Z,13.38
2022-07-30T16:53:36.277Z,13.38
2022-07-30T16:56:05.866Z,13.50
2022-07-30T16:58:33.699Z,13.30
2022-07-30T17:01:01.507Z,13.50
2022-07-30T17:03:29.143Z,13.57
2022-07-30T17:05:56.655Z,13.75
2022-07-30T17:08:24.656Z,13.40
2022-07-30T17:10:52.926Z,13.17
2022-07-30T17:13:22.617Z,13.70
2022-07-30T17:15:50.213Z,13.27
2022-07-30T17:18:17.869Z,13.17
2022-07-30T17:20:45.470Z,13.43
2022-07-30T17:23:13.566Z,13.23
2022-07-30T17:25:41.103Z,12.77
2022-07-30T17:28:08.701Z,13.30
2022-07-30T17:30:37.569Z,12.70
2022-07-30T17:33:06.218Z,13.27
2022-07-30T17:35:34.133Z,13.03
2022-07-30T17:38:01.973Z,12.80
2022-07-30T17:40:31.598Z,12.80
2022-07-30T17:43:03.390Z,13.00
2022-07-30T17:45:31.583Z,12.50
2022-07-30T17:48:01.425Z,12.87
2022-07-30T17:50:29.320Z,13.30
2022-07-30T17:52:56.888Z,13.00
2022-07-30T17:55:24.634Z,13.13
2022-07-30T17:57:52.192Z,12.60
2022-07-30T18:00:19.741Z,12.17
2022-07-30T18:02:47.285Z,12.93
2022-07-30T18:05:16.311Z,13.30
2022-07-30T18:07:44.672Z,12.80
2022-07-30T18:10:12.716Z,12.73
2022-07-30T18:12:48.899Z,12.80
2022-07-30T18:15:17.439Z,12.87
2022-07-30T18:17:45.585Z,12.70
2022-07-30T18:20:13.286Z,13.33
2022-07-30T18:22:42.250Z,13.13
2022-07-30T18:25:18.760Z,13.33
2022-07-30T18:27:47.238Z,13.17
2022-07-30T18:30:15.230Z,13.27
2022-07-30T18:32:42.765Z,13.07
2022-07-30T18:35:14.165Z,13.50
2022-07-30T18:37:45.767Z,13.60
2022-07-30T18:40:14.922Z,13.87
2022-07-30T18:42:42.999Z,14.07
2022-07-30T18:45:13.773Z,13.87
2022-07-30T18:47:41.818Z,13.50
2022-07-30T18:50:09.956Z,13.60
2022-07-30T18:52:37.583Z,14.90
2022-07-30T18:55:08.179Z,14.30
2022-07-30T18:57:36.154Z,15.70
2022-07-30T19:00:05.777Z,15.40
2022-07-30T19:02:35.481Z,15.23
2022-07-30T19:05:03.027Z,15.10
2022-07-30T19:07:30.832Z,15.10
2022-07-30T19:10:20.194Z,14.63
2022-07-30T19:12:47.731Z,14.53
2022-07-30T19:15:15.371Z,14.90
2022-07-30T19:17:46.280Z,14.70
2022-07-30T19:20:14.531Z,14.80
2022-07-30T19:22:46.693Z,13.87
2022-07-30T19:25:14.720Z,14.30
2022-07-30T19:27:43.811Z,13.77
2022-07-30T19:30:12.566Z,13.70
2022-07-30T19:32:40.391Z,13.90
2022-07-30T19:35:13.273Z,13.10
2022-07-30T19:37:42.289Z,13.50
2022-07-30T19:40:10.920Z,13.30
2022-07-30T19:42:41.529Z,13.73
2022-07-30T19:45:13.330Z,13.57
2022-07-30T19:47:42.417Z,13.37
2022-07-30T19:50:11.535Z,13.90
2022-07-30T19:52:39.496Z,14.43
2022-07-30T19:55:30.860Z,13.37
2022-07-30T19:57:56.195Z,14.20
2022-07-30T20:00:26.351Z,14.00
2022-07-30T20:02:54.120Z,14.00
2022-07-30T20:05:24.678Z,14.03
2022-07-30T20:07:52.713Z,13.83
2022-07-30T20:10:20.301Z,14.40
2022-07-30T20:12:49.658Z,14.00
2022-07-30T20:15:18.298Z,13.83
2022-07-30T20:17:47.210Z,14.00
2022-07-30T20:20:14.845Z,13.57
2022-07-30T20:22:42.445Z,14.00
2022-07-30T20:25:11.113Z,14.07
2022-07-30T20:27:41.265Z,13.83
2022-07-30T20:30:11.921Z,13.90
2022-07-30T20:32:44.671Z,13.90
2022-07-30T20:35:15.894Z,13.53
2022-07-30T20:37:55.596Z,13.80
2022-07-30T20:40:26.824Z,13.60
2022-07-30T20:42:55.009Z,13.43
2022-07-30T20:45:24.766Z,12.90
2022-07-30T20:47:57.369Z,12.83
2022-07-30T20:50:30.636Z,13.20
2022-07-30T20:52:59.165Z,13.27
2022-07-30T20:55:26.810Z,13.40
2022-07-30T20:57:58.075Z,13.53
2022-07-30T21:00:49.817Z,13.53
2022-07-30T21:03:21.480Z,13.17
2022-07-30T21:05:52.866Z,13.20
2022-07-30T21:08:21.168Z,13.60
2022-07-30T21:10:53.074Z,13.87
2022-07-30T21:13:22.859Z,13.60
2022-07-30T21:16:03.059Z,14.33
2022-07-30T21:18:31.604Z,14.90
2022-07-30T21:21:04.976Z,15.20
2022-07-30T21:23:33.539Z,14.93
2022-07-30T21:26:04.936Z,15.03
2022-07-30T21:28:35.136Z,15.50
2022-07-30T21:31:03.970Z,15.60
2022-07-30T21:33:34.787Z,15.67
2022-07-30T21:36:03.782Z,15.77
2022-07-30T21:38:31.764Z,15.93
2022-07-30T21:41:00.141Z,16.00
2022-07-30T21:43:29.982Z,17.10
2022-07-30T21:45:58.117Z,16.50
2022-07-30T21:48:26.014Z,16.60
2022-07-30T21:50:54.419Z,16.70
2022-07-30T21:53:29.963Z,16.73
2022-07-30T21:56:12.067Z,16.57
2022-07-30T21:58:40.784Z,16.57
2022-07-30T22:01:17.467Z,16.20
2022-07-30T22:04:03.379Z,16.30
2022-07-30T22:06:34.352Z,15.90
2022-07-30T22:09:18.322Z,15.57
2022-07-30T22:11:50.919Z,15.90
2022-07-30T22:14:18.452Z,15.70
2022-07-30T22:16:46.996Z,16.43
2022-07-30T22:19:15.025Z,16.27
2022-07-30T22:21:42.827Z,15.97
2022-07-30T22:24:29.154Z,16.40
2022-07-30T22:27:00.004Z,16.40
2022-07-30T22:29:34.121Z,16.13
2022-07-30T22:32:03.906Z,16.80
2022-07-30T22:34:31.989Z,16.63
2022-07-30T22:36:59.516Z,16.27
2022-07-30T22:39:31.772Z,16.70
2022-07-30T22:42:00.789Z,17.20
2022-07-30T22:44:28.843Z,17.00
2022-07-30T22:46:56.647Z,17.07
2022-07-30T22:49:46.072Z,16.63
2022-07-30T22:52:21.999Z,16.37
2022-07-30T22:54:55.475Z,16.13
2022-07-30T22:57:23.560Z,16.20
2022-07-30T22:59:58.700Z,15.90
2022-07-30T23:02:28.295Z,15.37
2022-07-30T23:04:56.414Z,14.50
2022-07-30T23:07:44.245Z,15.20
2022-07-30T23:10:20.775Z,14.87
2022-07-30T23:12:50.909Z,14.60
2022-07-30T23:15:19.650Z,13.90
2022-07-30T23:17:47.529Z,14.70
2022-07-30T23:20:17.501Z,15.33
2022-07-30T23:22:45.171Z,14.87
2022-07-30T23:25:13.476Z,14.57
2022-07-30T23:27:43.041Z,14.70
2022-07-30T23:30:12.302Z,14.60
2022-07-30T23:32:40.700Z,14.17
2022-07-30T23:35:09.681Z,13.67
2022-07-30T23:37:47.678Z,13.67
2022-07-30T23:40:17.084Z,13.40
2022-07-30T23:42:45.952Z,12.70
2022-07-30T23:45:14.493Z,12.43
2022-07-30T23:48:02.081Z,12.53
2022-07-30T23:50:30.586Z,12.00
2022-07-30T23:52:58.297Z,12.27
2022-07-30T23:55:26.899Z,12.10
2022-07-30T23:57:55.936Z,12.37
